Puerto Maldonado, Peru
Current Conditions -  °F | °C
As of 8:00 AM on Friday 31 Oct 2014 (Local Time) from SPZO Reporting Station
Scattered Clouds Scattered Clouds  
Wind Chill: 54°   Ceiling: Unl
Heat Index: 54°   Visibility: 6mi
Dew Point: 39°   Wind: 5mph
Humidity: 58%   Direction: 100°E
Pressure: 30.45"   Gusts: NA
Location:  12.6°S, 69.2°W
Report Text: SPZO 311300Z 10004KT 040V170 9999 SCT050 SCT230 12/04 Q1031 NOSIG RMK VIS QUAD NE 8000 FU PP000
Loading
Personal Weather Stations






























Interactive Weather Map
Tropical Storm Tracking
New forecast layout! Learn more

10-Day Weather Forecast

Advertisements
Track Severe Weather on mobile